sensor_id;sensor_type;location;lat;lon;timestamp;P1;durP1;ratioP1;P2;durP2;ratioP2
40503;SDS011;42292;49.048;8.374;2022-08-03T00:00:54;4.20;;;2.90;;
40503;SDS011;42292;49.048;8.374;2022-08-03T00:03:20;3.70;;;2.30;;
40503;SDS011;42292;49.048;8.374;2022-08-03T00:05:46;3.30;;;2.80;;
40503;SDS011;42292;49.048;8.374;2022-08-03T00:08:12;4.03;;;2.57;;
40503;SDS011;42292;49.048;8.374;2022-08-03T00:10:42;3.50;;;2.60;;
40503;SDS011;42292;49.048;8.374;2022-08-03T00:13:08;4.00;;;2.80;;
40503;SDS011;42292;49.048;8.374;2022-08-03T00:15:38;3.90;;;2.80;;
40503;SDS011;42292;49.048;8.374;2022-08-03T00:18:07;4.85;;;2.67;;
40503;SDS011;42292;49.048;8.374;2022-08-03T00:20:33;2.78;;;2.58;;
40503;SDS011;42292;49.048;8.374;2022-08-03T00:22:58;4.30;;;2.53;;
40503;SDS011;42292;49.048;8.374;2022-08-03T00:25:26;2.85;;;2.60;;
40503;SDS011;42292;49.048;8.374;2022-08-03T00:27:55;6.03;;;3.00;;
40503;SDS011;42292;49.048;8.374;2022-08-03T00:30:20;5.90;;;3.17;;
40503;SDS011;42292;49.048;8.374;2022-08-03T00:32:46;3.55;;;2.80;;
40503;SDS011;42292;49.048;8.374;2022-08-03T00:35:12;4.00;;;2.87;;
40503;SDS011;42292;49.048;8.374;2022-08-03T00:37:37;3.93;;;3.10;;
40503;SDS011;42292;49.048;8.374;2022-08-03T00:40:11;3.15;;;2.85;;
40503;SDS011;42292;49.048;8.374;2022-08-03T00:45:22;3.65;;;2.92;;
40503;SDS011;42292;49.048;8.374;2022-08-03T00:47:52;3.57;;;3.20;;
40503;SDS011;42292;49.048;8.374;2022-08-03T00:50:22;3.88;;;2.70;;
40503;SDS011;42292;49.048;8.374;2022-08-03T00:52:51;6.10;;;2.80;;
40503;SDS011;42292;49.048;8.374;2022-08-03T00:55:23;4.38;;;3.00;;
40503;SDS011;42292;49.048;8.374;2022-08-03T00:57:49;5.93;;;3.00;;
40503;SDS011;42292;49.048;8.374;2022-08-03T01:00:16;4.60;;;2.72;;
40503;SDS011;42292;49.048;8.374;2022-08-03T01:02:46;6.07;;;2.85;;
40503;SDS011;42292;49.048;8.374;2022-08-03T01:05:12;5.23;;;2.87;;
40503;SDS011;42292;49.048;8.374;2022-08-03T01:13:29;2.95;;;2.65;;
40503;SDS011;42292;49.048;8.374;2022-08-03T01:16:11;3.38;;;3.08;;
40503;SDS011;42292;49.048;8.374;2022-08-03T01:21:15;5.40;;;2.70;;
40503;SDS011;42292;49.048;8.374;2022-08-03T01:29:00;4.63;;;3.53;;
40503;SDS011;42292;49.048;8.374;2022-08-03T01:31:56;4.00;;;3.00;;
40503;SDS011;42292;49.048;8.374;2022-08-03T01:34:31;4.97;;;3.30;;
40503;SDS011;42292;49.048;8.374;2022-08-03T01:37:07;3.42;;;2.97;;
40503;SDS011;42292;49.048;8.374;2022-08-03T01:39:38;4.40;;;3.20;;
40503;SDS011;42292;49.048;8.374;2022-08-03T01:42:07;5.28;;;3.25;;
40503;SDS011;42292;49.048;8.374;2022-08-03T01:44:39;5.10;;;2.90;;
40503;SDS011;42292;49.048;8.374;2022-08-03T01:47:06;3.83;;;3.20;;
40503;SDS011;42292;49.048;8.374;2022-08-03T01:49:42;3.92;;;3.10;;
40503;SDS011;42292;49.048;8.374;2022-08-03T01:52:11;3.50;;;3.17;;
40503;SDS011;42292;49.048;8.374;2022-08-03T01:54:43;4.82;;;3.08;;
40503;SDS011;42292;49.048;8.374;2022-08-03T01:57:12;3.38;;;2.80;;
40503;SDS011;42292;49.048;8.374;2022-08-03T01:59:39;4.70;;;3.28;;
40503;SDS011;42292;49.048;8.374;2022-08-03T02:02:06;4.43;;;3.30;;
40503;SDS011;42292;49.048;8.374;2022-08-03T02:04:40;11.50;;;3.08;;
40503;SDS011;42292;49.048;8.374;2022-08-03T02:07:08;5.25;;;3.08;;
40503;SDS011;42292;49.048;8.374;2022-08-03T02:09:39;7.63;;;3.78;;
40503;SDS011;42292;49.048;8.374;2022-08-03T02:12:08;4.65;;;3.28;;
40503;SDS011;42292;49.048;8.374;2022-08-03T02:14:36;3.60;;;3.30;;
40503;SDS011;42292;49.048;8.374;2022-08-03T02:17:03;3.28;;;2.97;;
40503;SDS011;42292;49.048;8.374;2022-08-03T02:19:31;4.53;;;3.15;;
40503;SDS011;42292;49.048;8.374;2022-08-03T02:21:58;3.70;;;3.40;;
40503;SDS011;42292;49.048;8.374;2022-08-03T02:24:24;4.93;;;3.17;;
40503;SDS011;42292;49.048;8.374;2022-08-03T02:26:51;3.97;;;3.03;;
40503;SDS011;42292;49.048;8.374;2022-08-03T02:29:20;6.15;;;3.50;;
40503;SDS011;42292;49.048;8.374;2022-08-03T02:31:49;3.40;;;2.72;;
40503;SDS011;42292;49.048;8.374;2022-08-03T02:34:17;3.95;;;3.10;;
40503;SDS011;42292;49.048;8.374;2022-08-03T02:36:49;4.10;;;2.90;;
40503;SDS011;42292;49.048;8.374;2022-08-03T02:39:18;4.03;;;3.00;;
40503;SDS011;42292;49.048;8.374;2022-08-03T02:41:47;5.10;;;3.40;;
40503;SDS011;42292;49.048;8.374;2022-08-03T02:44:16;5.40;;;3.10;;
40503;SDS011;42292;49.048;8.374;2022-08-03T02:46:47;4.18;;;3.08;;
40503;SDS011;42292;49.048;8.374;2022-08-03T02:49:19;5.72;;;2.80;;
40503;SDS011;42292;49.048;8.374;2022-08-03T02:51:49;3.85;;;2.80;;
40503;SDS011;42292;49.048;8.374;2022-08-03T02:54:16;3.88;;;3.47;;
40503;SDS011;42292;49.048;8.374;2022-08-03T02:56:44;5.53;;;3.27;;
40503;SDS011;42292;49.048;8.374;2022-08-03T02:59:14;5.00;;;3.30;;
40503;SDS011;42292;49.048;8.374;2022-08-03T03:01:44;5.25;;;3.47;;
40503;SDS011;42292;49.048;8.374;2022-08-03T03:04:10;4.25;;;3.45;;
40503;SDS011;42292;49.048;8.374;2022-08-03T03:06:37;5.85;;;3.75;;
40503;SDS011;42292;49.048;8.374;2022-08-03T03:09:03;4.13;;;3.35;;
40503;SDS011;42292;49.048;8.374;2022-08-03T03:11:32;4.97;;;3.50;;
40503;SDS011;42292;49.048;8.374;2022-08-03T03:14:02;5.25;;;3.50;;
40503;SDS011;42292;49.048;8.374;2022-08-03T03:16:28;3.40;;;3.10;;
40503;SDS011;42292;49.048;8.374;2022-08-03T03:18:57;4.03;;;3.63;;
40503;SDS011;42292;49.048;8.374;2022-08-03T03:21:24;6.57;;;3.50;;
40503;SDS011;42292;49.048;8.374;2022-08-03T03:23:51;6.20;;;3.80;;
40503;SDS011;42292;49.048;8.374;2022-08-03T03:26:18;5.65;;;3.80;;
40503;SDS011;42292;49.048;8.374;2022-08-03T03:28:44;4.60;;;3.30;;
40503;SDS011;42292;49.048;8.374;2022-08-03T03:31:12;4.13;;;3.72;;
40503;SDS011;42292;49.048;8.374;2022-08-03T03:33:37;4.55;;;3.33;;
40503;SDS011;42292;49.048;8.374;2022-08-03T03:36:06;5.20;;;3.67;;
40503;SDS011;42292;49.048;8.374;2022-08-03T03:38:32;4.43;;;3.40;;
40503;SDS011;42292;49.048;8.374;2022-08-03T03:41:00;5.03;;;3.22;;
40503;SDS011;42292;49.048;8.374;2022-08-03T03:43:27;3.78;;;3.33;;
40503;SDS011;42292;49.048;8.374;2022-08-03T03:45:53;3.55;;;3.25;;
40503;SDS011;42292;49.048;8.374;2022-08-03T03:48:23;6.32;;;3.35;;
40503;SDS011;42292;49.048;8.374;2022-08-03T03:50:49;4.87;;;3.30;;
40503;SDS011;42292;49.048;8.374;2022-08-03T03:53:18;4.55;;;3.35;;
40503;SDS011;42292;49.048;8.374;2022-08-03T03:55:46;6.28;;;3.40;;
40503;SDS011;42292;49.048;8.374;2022-08-03T03:58:12;19.80;;;17.80;;
40503;SDS011;42292;49.048;8.374;2022-08-03T04:00:38;8.52;;;7.65;;
40503;SDS011;42292;49.048;8.374;2022-08-03T04:03:04;6.43;;;3.72;;
40503;SDS011;42292;49.048;8.374;2022-08-03T04:05:29;5.43;;;3.75;;
40503;SDS011;42292;49.048;8.374;2022-08-03T04:08:16;4.15;;;3.47;;
40503;SDS011;42292;49.048;8.374;2022-08-03T04:11:06;3.53;;;3.22;;
40503;SDS011;42292;49.048;8.374;2022-08-03T04:16:37;4.00;;;3.37;;
40503;SDS011;42292;49.048;8.374;2022-08-03T04:19:10;4.32;;;3.47;;
40503;SDS011;42292;49.048;8.374;2022-08-03T04:21:41;7.10;;;3.30;;
40503;SDS011;42292;49.048;8.374;2022-08-03T04:24:12;3.60;;;3.30;;
40503;SDS011;42292;49.048;8.374;2022-08-03T04:26:39;3.55;;;3.25;;
40503;SDS011;42292;49.048;8.374;2022-08-03T04:29:07;5.20;;;3.53;;
40503;SDS011;42292;49.048;8.374;2022-08-03T04:31:37;5.63;;;3.40;;
40503;SDS011;42292;49.048;8.374;2022-08-03T04:34:03;5.32;;;3.65;;
40503;SDS011;42292;49.048;8.374;2022-08-03T04:36:32;4.63;;;3.50;;
40503;SDS011;42292;49.048;8.374;2022-08-03T04:39:26;4.80;;;3.20;;
40503;SDS011;42292;49.048;8.374;2022-08-03T04:41:57;3.73;;;3.20;;
40503;SDS011;42292;49.048;8.374;2022-08-03T04:44:26;3.90;;;3.00;;
40503;SDS011;42292;49.048;8.374;2022-08-03T04:46:53;4.00;;;3.13;;
40503;SDS011;42292;49.048;8.374;2022-08-03T04:49:19;5.23;;;3.37;;
40503;SDS011;42292;49.048;8.374;2022-08-03T04:51:46;3.60;;;3.30;;
40503;SDS011;42292;49.048;8.374;2022-08-03T04:54:15;3.78;;;3.20;;
40503;SDS011;42292;49.048;8.374;2022-08-03T04:56:44;4.90;;;3.38;;
40503;SDS011;42292;49.048;8.374;2022-08-03T04:59:10;4.55;;;3.30;;
40503;SDS011;42292;49.048;8.374;2022-08-03T05:01:38;5.13;;;3.10;;
40503;SDS011;42292;49.048;8.374;2022-08-03T05:04:07;4.68;;;3.88;;
40503;SDS011;42292;49.048;8.374;2022-08-03T05:06:33;4.18;;;3.17;;
40503;SDS011;42292;49.048;8.374;2022-08-03T05:09:01;6.22;;;3.30;;
40503;SDS011;42292;49.048;8.374;2022-08-03T05:11:30;3.90;;;3.47;;
40503;SDS011;42292;49.048;8.374;2022-08-03T05:13:58;6.07;;;3.22;;
40503;SDS011;42292;49.048;8.374;2022-08-03T05:16:23;4.57;;;3.13;;
40503;SDS011;42292;49.048;8.374;2022-08-03T05:18:52;7.20;;;3.33;;
40503;SDS011;42292;49.048;8.374;2022-08-03T05:21:20;4.90;;;3.30;;
40503;SDS011;42292;49.048;8.374;2022-08-03T05:23:45;4.47;;;3.25;;
40503;SDS011;42292;49.048;8.374;2022-08-03T05:26:13;8.87;;;3.80;;
40503;SDS011;42292;49.048;8.374;2022-08-03T05:28:39;6.47;;;3.47;;
40503;SDS011;42292;49.048;8.374;2022-08-03T05:31:07;4.53;;;2.90;;
40503;SDS011;42292;49.048;8.374;2022-08-03T05:33:35;5.20;;;3.20;;
40503;SDS011;42292;49.048;8.374;2022-08-03T05:36:03;4.90;;;3.20;;
40503;SDS011;42292;49.048;8.374;2022-08-03T05:38:29;5.20;;;2.92;;
40503;SDS011;42292;49.048;8.374;2022-08-03T05:40:56;7.72;;;2.97;;
40503;SDS011;42292;49.048;8.374;2022-08-03T05:43:24;3.75;;;2.80;;
40503;SDS011;42292;49.048;8.374;2022-08-03T05:45:50;4.20;;;2.80;;
40503;SDS011;42292;49.048;8.374;2022-08-03T05:48:16;5.85;;;3.20;;
40503;SDS011;42292;49.048;8.374;2022-08-03T05:50:43;4.57;;;3.08;;
40503;SDS011;42292;49.048;8.374;2022-08-03T05:53:09;5.57;;;2.70;;
40503;SDS011;42292;49.048;8.374;2022-08-03T05:55:37;6.60;;;2.88;;
40503;SDS011;42292;49.048;8.374;2022-08-03T05:58:02;5.13;;;2.63;;
40503;SDS011;42292;49.048;8.374;2022-08-03T06:00:30;5.90;;;2.60;;
40503;SDS011;42292;49.048;8.374;2022-08-03T06:03:00;7.28;;;2.63;;
40503;SDS011;42292;49.048;8.374;2022-08-03T06:05:29;4.40;;;2.80;;
40503;SDS011;42292;49.048;8.374;2022-08-03T06:07:55;4.13;;;2.20;;
40503;SDS011;42292;49.048;8.374;2022-08-03T06:10:23;3.37;;;2.50;;
40503;SDS011;42292;49.048;8.374;2022-08-03T06:12:49;6.95;;;2.85;;
40503;SDS011;42292;49.048;8.374;2022-08-03T06:15:15;4.15;;;2.50;;
40503;SDS011;42292;49.048;8.374;2022-08-03T06:17:46;3.45;;;2.42;;
40503;SDS011;42292;49.048;8.374;2022-08-03T06:20:16;3.15;;;2.40;;
40503;SDS011;42292;49.048;8.374;2022-08-03T06:22:43;11.77;;;3.15;;
40503;SDS011;42292;49.048;8.374;2022-08-03T06:25:10;4.30;;;2.50;;
40503;SDS011;42292;49.048;8.374;2022-08-03T06:27:35;4.25;;;2.30;;
40503;SDS011;42292;49.048;8.374;2022-08-03T06:30:04;3.55;;;2.35;;
40503;SDS011;42292;49.048;8.374;2022-08-03T06:32:34;5.80;;;2.70;;
40503;SDS011;42292;49.048;8.374;2022-08-03T06:35:05;4.07;;;2.28;;
40503;SDS011;42292;49.048;8.374;2022-08-03T06:37:44;5.28;;;2.28;;
40503;SDS011;42292;49.048;8.374;2022-08-03T06:40:18;4.10;;;2.38;;
40503;SDS011;42292;49.048;8.374;2022-08-03T06:43:00;4.93;;;2.30;;
40503;SDS011;42292;49.048;8.374;2022-08-03T06:45:26;8.88;;;2.90;;
40503;SDS011;42292;49.048;8.374;2022-08-03T06:48:04;4.38;;;2.40;;
40503;SDS011;42292;49.048;8.374;2022-08-03T06:50:35;5.47;;;2.30;;
40503;SDS011;42292;49.048;8.374;2022-08-03T06:53:04;4.88;;;2.05;;
40503;SDS011;42292;49.048;8.374;2022-08-03T06:55:33;5.25;;;2.17;;
40503;SDS011;42292;49.048;8.374;2022-08-03T06:57:59;2.92;;;1.98;;
40503;SDS011;42292;49.048;8.374;2022-08-03T07:00:27;4.65;;;2.30;;
40503;SDS011;42292;49.048;8.374;2022-08-03T07:02:53;3.88;;;2.30;;
40503;SDS011;42292;49.048;8.374;2022-08-03T07:05:21;3.53;;;2.15;;
40503;SDS011;42292;49.048;8.374;2022-08-03T07:07:49;2.30;;;2.10;;
40503;SDS011;42292;49.048;8.374;2022-08-03T07:10:15;4.88;;;2.20;;
40503;SDS011;42292;49.048;8.374;2022-08-03T07:12:45;3.03;;;2.10;;
40503;SDS011;42292;49.048;8.374;2022-08-03T07:15:11;2.93;;;1.97;;
40503;SDS011;42292;49.048;8.374;2022-08-03T07:17:36;3.80;;;2.20;;
40503;SDS011;42292;49.048;8.374;2022-08-03T07:20:04;3.27;;;2.10;;
40503;SDS011;42292;49.048;8.374;2022-08-03T07:22:31;2.50;;;1.95;;
40503;SDS011;42292;49.048;8.374;2022-08-03T07:24:57;3.33;;;2.00;;
40503;SDS011;42292;49.048;8.374;2022-08-03T07:27:23;3.03;;;2.22;;
40503;SDS011;42292;49.048;8.374;2022-08-03T07:29:53;3.13;;;2.30;;
40503;SDS011;42292;49.048;8.374;2022-08-03T07:32:19;3.85;;;2.28;;
40503;SDS011;42292;49.048;8.374;2022-08-03T07:34:44;2.80;;;2.13;;
40503;SDS011;42292;49.048;8.374;2022-08-03T07:37:12;4.03;;;2.50;;
40503;SDS011;42292;49.048;8.374;2022-08-03T07:39:40;5.38;;;2.85;;
40503;SDS011;42292;49.048;8.374;2022-08-03T07:42:11;3.60;;;1.98;;
40503;SDS011;42292;49.048;8.374;2022-08-03T07:44:38;5.18;;;2.42;;
40503;SDS011;42292;49.048;8.374;2022-08-03T07:47:06;3.92;;;2.38;;
40503;SDS011;42292;49.048;8.374;2022-08-03T07:49:32;4.45;;;2.25;;
40503;SDS011;42292;49.048;8.374;2022-08-03T07:52:02;3.42;;;2.53;;
40503;SDS011;42292;49.048;8.374;2022-08-03T07:54:46;4.60;;;2.50;;
40503;SDS011;42292;49.048;8.374;2022-08-03T07:57:12;4.50;;;2.40;;
40503;SDS011;42292;49.048;8.374;2022-08-03T07:59:40;5.55;;;2.42;;
40503;SDS011;42292;49.048;8.374;2022-08-03T08:02:09;5.15;;;2.20;;
40503;SDS011;42292;49.048;8.374;2022-08-03T08:04:34;4.85;;;2.15;;
40503;SDS011;42292;49.048;8.374;2022-08-03T08:07:00;6.53;;;2.27;;
40503;SDS011;42292;49.048;8.374;2022-08-03T08:09:25;4.70;;;2.38;;
40503;SDS011;42292;49.048;8.374;2022-08-03T08:11:51;3.40;;;2.13;;
40503;SDS011;42292;49.048;8.374;2022-08-03T08:14:17;9.37;;;2.27;;
40503;SDS011;42292;49.048;8.374;2022-08-03T08:16:42;6.18;;;2.38;;
40503;SDS011;42292;49.048;8.374;2022-08-03T08:19:11;3.58;;;2.47;;
40503;SDS011;42292;49.048;8.374;2022-08-03T08:21:38;2.42;;;2.10;;
40503;SDS011;42292;49.048;8.374;2022-08-03T08:24:04;4.00;;;2.47;;
40503;SDS011;42292;49.048;8.374;2022-08-03T08:26:35;3.90;;;2.45;;
40503;SDS011;42292;49.048;8.374;2022-08-03T08:29:03;6.53;;;2.42;;
40503;SDS011;42292;49.048;8.374;2022-08-03T08:31:30;3.75;;;2.45;;
40503;SDS011;42292;49.048;8.374;2022-08-03T08:33:58;4.13;;;2.30;;
40503;SDS011;42292;49.048;8.374;2022-08-03T08:36:24;8.00;;;2.23;;
40503;SDS011;42292;49.048;8.374;2022-08-03T08:38:49;3.30;;;1.90;;
40503;SDS011;42292;49.048;8.374;2022-08-03T08:41:15;3.93;;;2.27;;
40503;SDS011;42292;49.048;8.374;2022-08-03T08:43:41;4.38;;;2.35;;
40503;SDS011;42292;49.048;8.374;2022-08-03T08:46:12;5.95;;;2.10;;
40503;SDS011;42292;49.048;8.374;2022-08-03T08:48:40;6.17;;;2.53;;
40503;SDS011;42292;49.048;8.374;2022-08-03T08:51:10;5.65;;;2.20;;
40503;SDS011;42292;49.048;8.374;2022-08-03T08:53:40;4.67;;;2.60;;
40503;SDS011;42292;49.048;8.374;2022-08-03T08:56:11;6.60;;;2.50;;
40503;SDS011;42292;49.048;8.374;2022-08-03T08:58:40;6.75;;;2.25;;
40503;SDS011;42292;49.048;8.374;2022-08-03T09:01:12;5.45;;;2.60;;
40503;SDS011;42292;49.048;8.374;2022-08-03T09:03:38;7.40;;;2.72;;
40503;SDS011;42292;49.048;8.374;2022-08-03T09:06:04;13.07;;;3.92;;
40503;SDS011;42292;49.048;8.374;2022-08-03T09:08:31;6.03;;;2.50;;
40503;SDS011;42292;49.048;8.374;2022-08-03T09:10:57;7.72;;;3.03;;
40503;SDS011;42292;49.048;8.374;2022-08-03T09:13:25;6.07;;;3.30;;
40503;SDS011;42292;49.048;8.374;2022-08-03T09:18:40;4.10;;;2.50;;
40503;SDS011;42292;49.048;8.374;2022-08-03T09:23:50;5.75;;;2.10;;
40503;SDS011;42292;49.048;8.374;2022-08-03T09:26:26;2.87;;;2.27;;
40503;SDS011;42292;49.048;8.374;2022-08-03T09:28:56;4.20;;;2.30;;
40503;SDS011;42292;49.048;8.374;2022-08-03T09:31:44;3.72;;;2.10;;
40503;SDS011;42292;49.048;8.374;2022-08-03T09:34:16;3.80;;;1.90;;
40503;SDS011;42292;49.048;8.374;2022-08-03T09:36:48;2.95;;;2.22;;
40503;SDS011;42292;49.048;8.374;2022-08-03T09:41:42;2.67;;;1.87;;
40503;SDS011;42292;49.048;8.374;2022-08-03T09:44:12;4.10;;;2.30;;
40503;SDS011;42292;49.048;8.374;2022-08-03T09:46:52;2.67;;;2.17;;
40503;SDS011;42292;49.048;8.374;2022-08-03T09:49:20;3.10;;;2.05;;
40503;SDS011;42292;49.048;8.374;2022-08-03T09:51:48;5.13;;;2.10;;
40503;SDS011;42292;49.048;8.374;2022-08-03T09:54:27;3.10;;;2.10;;
40503;SDS011;42292;49.048;8.374;2022-08-03T09:56:56;2.45;;;1.88;;
40503;SDS011;42292;49.048;8.374;2022-08-03T09:59:25;3.40;;;2.00;;
40503;SDS011;42292;49.048;8.374;2022-08-03T10:01:53;6.50;;;2.17;;
40503;SDS011;42292;49.048;8.374;2022-08-03T10:04:20;4.30;;;1.97;;
40503;SDS011;42292;49.048;8.374;2022-08-03T10:07:00;3.93;;;1.93;;
40503;SDS011;42292;49.048;8.374;2022-08-03T10:09:26;2.72;;;1.92;;
40503;SDS011;42292;49.048;8.374;2022-08-03T10:11:52;3.13;;;1.77;;
40503;SDS011;42292;49.048;8.374;2022-08-03T10:14:18;2.53;;;1.92;;
40503;SDS011;42292;49.048;8.374;2022-08-03T10:16:44;2.47;;;1.80;;
40503;SDS011;42292;49.048;8.374;2022-08-03T10:19:11;5.78;;;2.03;;
40503;SDS011;42292;49.048;8.374;2022-08-03T10:21:40;3.50;;;2.08;;
40503;SDS011;42292;49.048;8.374;2022-08-03T10:24:14;2.08;;;1.88;;
40503;SDS011;42292;49.048;8.374;2022-08-03T10:26:44;4.75;;;2.03;;
40503;SDS011;42292;49.048;8.374;2022-08-03T10:29:21;1.90;;;1.75;;
40503;SDS011;42292;49.048;8.374;2022-08-03T10:31:49;2.72;;;1.30;;
40503;SDS011;42292;49.048;8.374;2022-08-03T10:34:23;4.35;;;1.63;;
40503;SDS011;42292;49.048;8.374;2022-08-03T10:36:51;2.40;;;1.60;;
40503;SDS011;42292;49.048;8.374;2022-08-03T10:39:23;4.40;;;1.70;;
40503;SDS011;42292;49.048;8.374;2022-08-03T10:41:54;1.45;;;1.35;;
40503;SDS011;42292;49.048;8.374;2022-08-03T10:44:23;2.38;;;1.40;;
40503;SDS011;42292;49.048;8.374;2022-08-03T10:46:54;2.30;;;1.40;;
40503;SDS011;42292;49.048;8.374;2022-08-03T10:49:21;3.97;;;1.40;;
40503;SDS011;42292;49.048;8.374;2022-08-03T10:51:47;5.03;;;1.58;;
40503;SDS011;42292;49.048;8.374;2022-08-03T11:00:23;4.32;;;2.20;;
40503;SDS011;42292;49.048;8.374;2022-08-03T11:08:20;8.73;;;2.50;;
40503;SDS011;42292;49.048;8.374;2022-08-03T11:11:00;3.17;;;1.70;;
40503;SDS011;42292;49.048;8.374;2022-08-03T11:13:37;2.30;;;1.52;;
40503;SDS011;42292;49.048;8.374;2022-08-03T11:16:22;3.15;;;1.67;;
40503;SDS011;42292;49.048;8.374;2022-08-03T11:18:55;2.90;;;1.65;;
40503;SDS011;42292;49.048;8.374;2022-08-03T11:35:07;4.95;;;1.73;;
40503;SDS011;42292;49.048;8.374;2022-08-03T11:37:36;1.70;;;1.50;;
40503;SDS011;42292;49.048;8.374;2022-08-03T11:48:49;2.07;;;1.83;;
40503;SDS011;42292;49.048;8.374;2022-08-03T11:51:26;2.95;;;1.80;;
40503;SDS011;42292;49.048;8.374;2022-08-03T11:56:47;3.38;;;1.65;;
40503;SDS011;42292;49.048;8.374;2022-08-03T11:59:13;2.80;;;1.60;;
40503;SDS011;42292;49.048;8.374;2022-08-03T12:01:40;2.63;;;1.58;;
40503;SDS011;42292;49.048;8.374;2022-08-03T12:04:06;5.37;;;1.50;;
40503;SDS011;42292;49.048;8.374;2022-08-03T12:06:31;2.47;;;1.38;;
40503;SDS011;42292;49.048;8.374;2022-08-03T12:09:19;2.22;;;1.70;;
40503;SDS011;42292;49.048;8.374;2022-08-03T12:11:48;2.55;;;1.60;;
40503;SDS011;42292;49.048;8.374;2022-08-03T12:14:17;2.57;;;1.50;;
40503;SDS011;42292;49.048;8.374;2022-08-03T12:16:47;4.88;;;1.60;;
40503;SDS011;42292;49.048;8.374;2022-08-03T12:19:13;2.25;;;1.63;;
40503;SDS011;42292;49.048;8.374;2022-08-03T12:21:45;2.97;;;1.70;;
40503;SDS011;42292;49.048;8.374;2022-08-03T12:24:12;4.30;;;1.70;;
40503;SDS011;42292;49.048;8.374;2022-08-03T12:26:45;2.40;;;1.60;;
40503;SDS011;42292;49.048;8.374;2022-08-03T12:31:48;3.72;;;1.70;;
40503;SDS011;42292;49.048;8.374;2022-08-03T12:34:14;2.85;;;1.55;;
40503;SDS011;42292;49.048;8.374;2022-08-03T12:36:50;2.20;;;1.42;;
40503;SDS011;42292;49.048;8.374;2022-08-03T12:39:21;2.60;;;1.33;;
40503;SDS011;42292;49.048;8.374;2022-08-03T12:41:51;3.22;;;1.38;;
40503;SDS011;42292;49.048;8.374;2022-08-03T12:44:28;1.67;;;1.50;;
40503;SDS011;42292;49.048;8.374;2022-08-03T12:46:59;2.47;;;1.70;;
40503;SDS011;42292;49.048;8.374;2022-08-03T12:49:25;4.57;;;1.55;;
40503;SDS011;42292;49.048;8.374;2022-08-03T12:54:21;6.23;;;1.60;;
40503;SDS011;42292;49.048;8.374;2022-08-03T12:57:04;2.50;;;1.58;;
40503;SDS011;42292;49.048;8.374;2022-08-03T12:59:41;2.50;;;1.55;;
40503;SDS011;42292;49.048;8.374;2022-08-03T13:04:52;2.75;;;1.75;;
40503;SDS011;42292;49.048;8.374;2022-08-03T13:07:19;2.60;;;1.50;;
40503;SDS011;42292;49.048;8.374;2022-08-03T13:09:46;2.65;;;1.50;;
40503;SDS011;42292;49.048;8.374;2022-08-03T13:14:43;3.33;;;1.50;;
40503;SDS011;42292;49.048;8.374;2022-08-03T13:17:13;2.10;;;1.58;;
40503;SDS011;42292;49.048;8.374;2022-08-03T13:19:40;2.42;;;1.58;;
40503;SDS011;42292;49.048;8.374;2022-08-03T13:22:12;2.65;;;1.60;;
40503;SDS011;42292;49.048;8.374;2022-08-03T13:24:40;2.17;;;1.40;;
40503;SDS011;42292;49.048;8.374;2022-08-03T13:27:06;3.08;;;1.50;;
40503;SDS011;42292;49.048;8.374;2022-08-03T13:29:34;1.98;;;1.27;;
40503;SDS011;42292;49.048;8.374;2022-08-03T13:32:00;2.77;;;1.50;;
40503;SDS011;42292;49.048;8.374;2022-08-03T13:34:27;2.40;;;1.60;;
40503;SDS011;42292;49.048;8.374;2022-08-03T13:36:55;3.33;;;1.60;;
40503;SDS011;42292;49.048;8.374;2022-08-03T13:39:23;3.08;;;1.45;;
40503;SDS011;42292;49.048;8.374;2022-08-03T13:41:51;3.03;;;1.63;;
40503;SDS011;42292;49.048;8.374;2022-08-03T13:44:19;2.13;;;1.60;;
40503;SDS011;42292;49.048;8.374;2022-08-03T13:46:47;2.78;;;1.55;;
40503;SDS011;42292;49.048;8.374;2022-08-03T13:49:16;3.40;;;1.20;;
40503;SDS011;42292;49.048;8.374;2022-08-03T13:51:41;2.28;;;1.50;;
40503;SDS011;42292;49.048;8.374;2022-08-03T13:54:07;2.30;;;1.37;;
40503;SDS011;42292;49.048;8.374;2022-08-03T13:56:33;3.97;;;1.38;;
40503;SDS011;42292;49.048;8.374;2022-08-03T13:59:00;3.47;;;1.65;;
40503;SDS011;42292;49.048;8.374;2022-08-03T14:01:28;2.60;;;1.70;;
40503;SDS011;42292;49.048;8.374;2022-08-03T14:03:54;2.00;;;1.30;;
40503;SDS011;42292;49.048;8.374;2022-08-03T14:06:22;2.90;;;1.43;;
40503;SDS011;42292;49.048;8.374;2022-08-03T14:08:48;2.03;;;1.30;;
40503;SDS011;42292;49.048;8.374;2022-08-03T14:11:17;2.00;;;1.40;;
40503;SDS011;42292;49.048;8.374;2022-08-03T14:13:42;3.53;;;1.70;;
40503;SDS011;42292;49.048;8.374;2022-08-03T14:16:10;2.80;;;1.25;;
40503;SDS011;42292;49.048;8.374;2022-08-03T14:18:36;2.03;;;1.20;;
40503;SDS011;42292;49.048;8.374;2022-08-03T14:21:02;1.60;;;1.10;;
40503;SDS011;42292;49.048;8.374;2022-08-03T14:23:29;1.88;;;1.30;;
40503;SDS011;42292;49.048;8.374;2022-08-03T14:25:55;2.20;;;1.30;;
40503;SDS011;42292;49.048;8.374;2022-08-03T14:28:21;1.30;;;1.17;;
40503;SDS011;42292;49.048;8.374;2022-08-03T14:30:52;3.40;;;1.38;;
40503;SDS011;42292;49.048;8.374;2022-08-03T14:33:19;4.93;;;1.30;;
40503;SDS011;42292;49.048;8.374;2022-08-03T14:35:46;2.20;;;1.10;;
40503;SDS011;42292;49.048;8.374;2022-08-03T14:38:12;2.35;;;1.25;;
40503;SDS011;42292;49.048;8.374;2022-08-03T14:40:38;1.83;;;1.20;;
40503;SDS011;42292;49.048;8.374;2022-08-03T14:43:03;1.10;;;1.00;;
40503;SDS011;42292;49.048;8.374;2022-08-03T14:45:29;2.70;;;1.20;;
40503;SDS011;42292;49.048;8.374;2022-08-03T14:47:58;2.20;;;1.20;;
40503;SDS011;42292;49.048;8.374;2022-08-03T14:50:24;2.17;;;1.30;;
40503;SDS011;42292;49.048;8.374;2022-08-03T14:52:55;2.45;;;1.38;;
40503;SDS011;42292;49.048;8.374;2022-08-03T14:55:21;1.50;;;1.40;;
40503;SDS011;42292;49.048;8.374;2022-08-03T14:57:46;1.60;;;1.23;;
40503;SDS011;42292;49.048;8.374;2022-08-03T15:00:12;2.00;;;1.20;;
40503;SDS011;42292;49.048;8.374;2022-08-03T15:02:38;2.25;;;1.40;;
40503;SDS011;42292;49.048;8.374;2022-08-03T15:05:04;5.10;;;1.50;;
40503;SDS011;42292;49.048;8.374;2022-08-03T15:07:30;1.27;;;1.15;;
40503;SDS011;42292;49.048;8.374;2022-08-03T15:09:56;2.90;;;1.20;;
40503;SDS011;42292;49.048;8.374;2022-08-03T15:12:21;1.90;;;1.50;;
40503;SDS011;42292;49.048;8.374;2022-08-03T15:14:47;2.30;;;1.33;;
40503;SDS011;42292;49.048;8.374;2022-08-03T15:17:16;3.47;;;1.48;;
40503;SDS011;42292;49.048;8.374;2022-08-03T15:19:43;2.50;;;1.50;;
40503;SDS011;42292;49.048;8.374;2022-08-03T15:22:09;1.75;;;1.45;;
40503;SDS011;42292;49.048;8.374;2022-08-03T15:24:39;3.35;;;1.40;;
40503;SDS011;42292;49.048;8.374;2022-08-03T15:27:05;3.22;;;1.45;;
40503;SDS011;42292;49.048;8.374;2022-08-03T15:29:31;2.97;;;1.30;;
40503;SDS011;42292;49.048;8.374;2022-08-03T15:31:56;1.47;;;1.30;;
40503;SDS011;42292;49.048;8.374;2022-08-03T15:34:22;2.33;;;1.50;;
40503;SDS011;42292;49.048;8.374;2022-08-03T15:36:48;1.90;;;1.60;;
40503;SDS011;42292;49.048;8.374;2022-08-03T15:39:13;3.53;;;1.50;;
40503;SDS011;42292;49.048;8.374;2022-08-03T15:41:41;2.05;;;1.42;;
40503;SDS011;42292;49.048;8.374;2022-08-03T15:44:06;2.85;;;1.30;;
40503;SDS011;42292;49.048;8.374;2022-08-03T15:46:34;3.40;;;1.50;;
40503;SDS011;42292;49.048;8.374;2022-08-03T15:49:02;2.20;;;1.40;;
40503;SDS011;42292;49.048;8.374;2022-08-03T15:51:28;2.57;;;1.20;;
40503;SDS011;42292;49.048;8.374;2022-08-03T15:53:56;10.95;;;1.73;;
40503;SDS011;42292;49.048;8.374;2022-08-03T15:56:22;1.95;;;1.40;;
40503;SDS011;42292;49.048;8.374;2022-08-03T15:58:47;3.17;;;1.30;;
40503;SDS011;42292;49.048;8.374;2022-08-03T16:01:15;1.70;;;1.20;;
40503;SDS011;42292;49.048;8.374;2022-08-03T16:03:43;1.65;;;1.38;;
40503;SDS011;42292;49.048;8.374;2022-08-03T16:06:11;2.67;;;1.50;;
40503;SDS011;42292;49.048;8.374;2022-08-03T16:08:39;2.50;;;1.50;;
40503;SDS011;42292;49.048;8.374;2022-08-03T16:11:05;3.10;;;1.40;;